Time;durP1;ratioP1;P1;durP2;ratioP2;P2;SDS_P1;SDS_P2;PMS_P1;PMS_P2;Temp;Humidity;BMP_temperature;BMP_pressure;BME280_temperature;BME280_humidity;BME280_pressure;Samples;Min_cycle;Max_cycle;Signal;HPM_P1;HPM_P2
2022/10/18 00:00:59;;;;;;;25.27;13.63;;;13.70;99.90;;;;;;4954475;29;20079;-67
2022/10/18 00:03:25;;;;;;;24.88;15.32;;;13.60;99.90;;;;;;4954764;29;20078;-67
2022/10/18 00:05:51;;;;;;;32.03;15.07;;;13.60;99.90;;;;;;4936974;29;20106;-67
2022/10/18 00:08:18;;;;;;;29.52;14.77;;;13.70;99.90;;;;;;4954412;29;20074;-67
2022/10/18 00:10:44;;;;;;;25.50;14.52;;;13.50;99.90;;;;;;4948392;29;20398;-67
2022/10/18 00:13:10;;;;;;;25.10;14.65;;;13.50;99.90;;;;;;4926996;29;20039;-67
2022/10/18 00:15:35;;;;;;;30.13;14.93;;;13.60;99.90;;;;;;4937108;28;20090;-67
2022/10/18 00:18:01;;;;;;;29.02;15.38;;;13.70;99.90;;;;;;4957765;29;20039;-67
2022/10/18 00:20:27;;;;;;;24.50;13.90;;;13.50;99.90;;;;;;4924955;29;20052;-67
2022/10/18 00:22:52;;;;;;;29.45;14.35;;;13.50;99.90;;;;;;4941005;29;20042;-67
2022/10/18 00:25:18;;;;;;;35.70;15.43;;;13.60;99.90;;;;;;4940934;29;20035;-67
2022/10/18 00:27:43;;;;;;;25.23;14.80;;;13.60;99.90;;;;;;4940734;29;20035;-67
2022/10/18 00:30:10;;;;;;;26.80;13.48;;;;;;;;;;4940756;29;20039;-67
2022/10/18 00:32:39;;;;;;;23.30;14.45;;;13.50;99.90;;;;;;4940592;29;20047;-67
2022/10/18 00:35:06;;;;;;;30.63;14.52;;;13.40;99.90;;;;;;4957915;29;20043;-67
2022/10/18 00:37:33;;;;;;;24.50;14.48;;;13.40;99.90;;;;;;4944470;29;20509;-67
2022/10/18 00:39:58;;;;;;;25.73;13.60;;;13.50;99.90;;;;;;4936784;29;20404;-67
2022/10/18 00:42:36;;;;;;;28.25;14.90;;;13.50;99.90;;;;;;4940630;29;20043;-66
2022/10/18 00:45:16;;;;;;;29.45;15.40;;;13.60;99.90;;;;;;4932132;29;20497;-67
2022/10/18 00:47:46;;;;;;;29.08;16.13;;;13.40;99.90;;;;;;4940216;29;20035;-67
2022/10/18 00:50:12;;;;;;;25.75;14.98;;;13.80;99.90;;;;;;4940469;29;20118;-67
2022/10/18 00:52:46;;;;;;;34.20;16.98;;;13.50;99.90;;;;;;4957793;29;20557;-67
2022/10/18 00:55:12;;;;;;;27.85;16.00;;;13.70;99.90;;;;;;4926952;29;20592;-67
2022/10/18 00:57:41;;;;;;;36.97;15.70;;;13.50;99.90;;;;;;4957447;29;20043;-67
2022/10/18 01:00:08;;;;;;;22.92;13.38;;;13.50;99.90;;;;;;4940390;29;20050;-67
2022/10/18 01:02:36;;;;;;;21.10;12.98;;;13.50;99.90;;;;;;4927132;29;20047;-67
2022/10/18 01:05:02;;;;;;;22.25;12.95;;;13.30;99.90;;;;;;4957374;29;20055;-67
2022/10/18 01:07:49;;;;;;;21.33;12.02;;;13.50;99.90;;;;;;4940029;29;20520;-67
2022/10/18 01:10:44;;;;;;;24.02;13.38;;;13.40;99.90;;;;;;4957416;29;20054;-66
2022/10/18 01:13:57;;;;;;;18.83;11.68;;;13.60;99.90;;;;;;4919368;29;20054;-67
2022/10/18 01:16:51;;;;;;;18.02;10.85;;;13.50;99.90;;;;;;4889932;29;20131;-67
2022/10/18 01:19:55;;;;;;;57.15;9.07;;;13.20;99.90;;;;;;4886375;29;20060;-67
2022/10/18 01:22:38;;;;;;;36.40;6.45;;;13.00;99.90;;;;;;4931573;29;20102;-67
2022/10/18 01:25:37;;;;;;;34.97;6.38;;;12.80;99.90;;;;;;4923853;29;20401;-67
2022/10/18 01:28:37;;;;;;;5.90;5.30;;;12.70;99.90;;;;;;4955717;28;20035;-67
2022/10/18 01:31:22;;;;;;;9.15;6.40;;;13.10;99.90;;;;;;4920548;29;20529;-67
2022/10/18 01:33:50;;;;;;;;;;;12.80;99.90;;;;;;4939901;29;20054;-67
2022/10/18 01:36:29;;;;;;;16.65;8.77;;;12.70;99.90;;;;;;4939742;29;19918;-66
2022/10/18 01:38:58;;;;;;;12.35;6.55;;;12.90;99.90;;;;;;4953071;29;20118;-66
2022/10/18 01:41:25;;;;;;;30.73;6.43;;;12.90;99.90;;;;;;4939501;29;20054;-66
2022/10/18 01:43:59;;;;;;;13.25;6.72;;;12.70;99.90;;;;;;4956305;29;20031;-66
2022/10/18 01:46:25;;;;;;;11.57;5.95;;;12.70;99.90;;;;;;4937368;29;20502;-67
2022/10/18 01:48:52;;;;;;;43.75;9.35;;;12.60;99.90;;;;;;4955891;29;20094;-68
2022/10/18 01:51:21;;;;;;;94.10;11.60;;;12.50;99.90;;;;;;4956687;29;20122;-68
2022/10/18 01:53:47;;;;;;;18.75;7.32;;;12.70;99.90;;;;;;4939142;29;20051;-67
2022/10/18 01:57:04;;;;;;;7.82;5.68;;;12.40;99.90;;;;;;4939257;29;20046;-67
2022/10/18 01:59:32;;;;;;;16.30;6.45;;;12.60;99.90;;;;;;4896939;29;20424;-67
2022/10/18 02:02:16;;;;;;;64.85;9.52;;;12.40;99.90;;;;;;4939143;29;20039;-67
2022/10/18 02:05:23;;;;;;;9.88;7.00;;;12.40;99.90;;;;;;4956286;29;20051;-67
2022/10/18 02:07:54;;;;;;;41.45;9.68;;;12.50;99.90;;;;;;4931641;29;20045;-66
2022/10/18 02:10:37;;;;;;;23.50;7.30;;;12.50;99.90;;;;;;4939045;29;20110;-67
2022/10/18 02:13:02;;;;;;;122.03;8.95;;;12.50;99.90;;;;;;4933660;29;20505;-67
2022/10/18 02:15:37;;;;;;;114.78;8.85;;;12.40;99.90;;;;;;4955943;29;20070;-66
2022/10/18 02:18:11;;;;;;;5.72;4.50;;;12.40;99.90;;;;;;4938649;29;20046;-67
2022/10/18 02:20:37;;;;;;;28.20;7.70;;;12.40;99.90;;;;;;4938649;29;20134;-67
2022/10/18 02:23:07;;;;;;;220.90;14.38;;;12.40;99.90;;;;;;4938471;29;20509;-67
2022/10/18 02:25:33;;;;;;;9.98;5.70;;;12.40;99.90;;;;;;4943009;29;20047;-67
2022/10/18 02:28:00;;;;;;;14.95;8.18;;;12.40;99.90;;;;;;4955157;29;20053;-67
2022/10/18 02:30:33;;;;;;;18.38;8.80;;;12.40;99.90;;;;;;4944928;29;20048;-67
2022/10/18 02:33:20;;;;;;;15.73;9.38;;;12.50;99.90;;;;;;4954210;29;20363;-66
2022/10/18 02:35:50;;;;;;;21.40;12.23;;;12.50;99.90;;;;;;4938917;29;20043;-67
2022/10/18 02:38:19;;;;;;;25.95;14.00;;;12.60;99.90;;;;;;4938270;29;20532;-67
2022/10/18 02:40:44;;;;;;;16.77;10.02;;;12.60;99.90;;;;;;4955662;28;20043;-67
2022/10/18 02:43:10;;;;;;;22.05;10.48;;;12.50;99.90;;;;;;4938422;29;20047;-66
2022/10/18 02:45:36;;;;;;;24.25;11.82;;;12.60;99.90;;;;;;4946872;29;20039;-67
2022/10/18 02:48:02;;;;;;;19.48;11.25;;;12.50;99.90;;;;;;4955804;29;20047;-67
2022/10/18 02:50:27;;;;;;;12.88;5.55;;;12.50;99.90;;;;;;4938370;29;20447;-66
2022/10/18 02:52:53;;;;;;;9.32;6.03;;;12.20;99.90;;;;;;4955568;29;20386;-67
2022/10/18 02:55:18;;;;;;;7.00;6.30;;;12.20;99.90;;;;;;4938223;29;20101;-67
2022/10/18 02:57:44;;;;;;;11.68;7.88;;;12.20;99.90;;;;;;4938482;29;20103;-67
2022/10/18 03:00:10;;;;;;;8.15;6.15;;;;;;;;;;4918917;29;20055;-65
2022/10/18 03:02:36;;;;;;;12.10;5.25;;;;;;;;;;4919151;29;20044;-67
2022/10/18 03:05:02;;;;;;;12.90;5.82;;;12.10;99.90;;;;;;4918841;29;20499;-66
2022/10/18 03:07:28;;;;;;;29.85;7.13;;;12.10;99.90;;;;;;4936352;29;20050;-67
2022/10/18 03:09:53;;;;;;;7.45;6.20;;;12.00;99.90;;;;;;4935870;29;20199;-66
2022/10/18 03:12:19;;;;;;;140.93;9.75;;;12.00;99.90;;;;;;4919188;29;20036;-67
2022/10/18 03:14:44;;;;;;;5.53;4.40;;;11.80;99.90;;;;;;4936096;29;20083;-67
2022/10/18 03:17:10;;;;;;;6.78;4.80;;;11.90;99.90;;;;;;4936251;29;20039;-67
2022/10/18 03:19:37;;;;;;;9.05;6.32;;;12.00;99.90;;;;;;4936126;29;20043;-66
2022/10/18 03:22:03;;;;;;;14.65;6.88;;;12.00;99.90;;;;;;4935992;29;20047;-67
2022/10/18 03:24:29;;;;;;;5.88;4.00;;;;;;;;;;4919256;29;20039;-66
2022/10/18 03:26:54;;;;;;;7.80;4.75;;;12.00;99.90;;;;;;4903209;29;20505;-66
2022/10/18 03:29:20;;;;;;;62.08;6.40;;;11.90;99.90;;;;;;4903358;29;20118;-67
2022/10/18 03:31:45;;;;;;;61.47;7.15;;;11.90;99.90;;;;;;4936300;29;20035;-67
2022/10/18 03:34:11;;;;;;;48.53;7.88;;;11.80;99.90;;;;;;4918879;29;20157;-66
2022/10/18 03:36:37;;;;;;;8.85;6.30;;;11.70;99.90;;;;;;4919235;29;20083;-67
2022/10/18 03:39:03;;;;;;;12.90;7.15;;;11.80;99.90;;;;;;4919291;29;20070;-66
2022/10/18 03:41:28;;;;;;;18.48;9.30;;;11.80;99.90;;;;;;4919269;29;20498;-67
2022/10/18 03:43:54;;;;;;;51.95;11.25;;;12.10;99.90;;;;;;4918986;29;20577;-67
2022/10/18 03:46:19;;;;;;;34.03;11.30;;;11.90;99.90;;;;;;4912340;29;20039;-66
2022/10/18 03:48:45;;;;;;;29.67;12.68;;;;;;;;;;4919191;29;20063;-67
2022/10/18 03:51:11;;;;;;;22.33;12.68;;;12.00;99.90;;;;;;4919436;29;20134;-67
2022/10/18 03:53:36;;;;;;;110.93;17.08;;;12.10;99.90;;;;;;4922948;29;20051;-67
2022/10/18 03:56:02;;;;;;;61.75;16.80;;;12.00;99.90;;;;;;4943773;29;20425;-67
2022/10/18 03:58:28;;;;;;;44.33;17.02;;;12.10;99.90;;;;;;4939916;29;20062;-67
2022/10/18 04:00:54;;;;;;;45.38;16.02;;;12.00;99.90;;;;;;4939857;29;20402;-67
2022/10/18 04:03:21;;;;;;;49.28;15.88;;;12.20;99.90;;;;;;4939698;29;20156;-66
2022/10/18 04:05:47;;;;;;;28.85;14.05;;;12.30;99.90;;;;;;4922820;29;20110;-67
2022/10/18 04:08:14;;;;;;;109.85;19.45;;;12.20;99.90;;;;;;4939844;29;20043;-67
2022/10/18 04:10:40;;;;;;;67.72;15.32;;;12.00;99.90;;;;;;4939732;29;20051;-67
2022/10/18 04:13:06;;;;;;;73.57;15.20;;;12.20;99.90;;;;;;4939689;29;20095;-66
2022/10/18 04:15:32;;;;;;;43.95;14.48;;;12.40;99.90;;;;;;4922788;29;20044;-67
2022/10/18 04:17:59;;;;;;;47.90;14.75;;;12.30;99.90;;;;;;4939790;29;20486;-66
2022/10/18 04:20:25;;;;;;;28.15;11.90;;;12.40;99.90;;;;;;4939563;29;20624;-67
2022/10/18 04:22:51;;;;;;;68.80;14.55;;;12.40;99.90;;;;;;4939497;29;20044;-67
2022/10/18 04:25:17;;;;;;;87.78;16.45;;;12.40;99.90;;;;;;4922274;29;20047;-66
2022/10/18 04:27:42;;;;;;;80.40;15.43;;;12.40;99.90;;;;;;4939841;29;20144;-67
2022/10/18 04:30:08;;;;;;;58.45;15.18;;;12.30;99.90;;;;;;4939343;29;20047;-66
2022/10/18 04:32:34;;;;;;;54.00;14.95;;;12.40;99.90;;;;;;4939687;29;20055;-67
2022/10/18 04:35:04;;;;;;;36.42;14.02;;;12.50;99.90;;;;;;4939669;29;20046;-67
2022/10/18 04:37:30;;;;;;;51.70;14.50;;;12.40;99.90;;;;;;4939706;29;20144;-67
2022/10/18 04:39:56;;;;;;;26.98;15.10;;;12.30;99.90;;;;;;4939421;29;20096;-66
2022/10/18 04:42:21;;;;;;;68.97;15.32;;;12.40;99.90;;;;;;4939370;29;20482;-67
2022/10/18 04:44:47;;;;;;;45.95;15.35;;;12.30;99.90;;;;;;4922658;29;20044;-67
2022/10/18 04:47:13;;;;;;;49.20;14.70;;;12.30;99.90;;;;;;4939114;29;20490;-66
2022/10/18 04:49:38;;;;;;;25.67;13.68;;;12.30;99.90;;;;;;4922524;29;20091;-66
2022/10/18 04:52:04;;;;;;;28.38;14.15;;;12.40;99.90;;;;;;4939128;29;20043;-67
2022/10/18 04:54:29;;;;;;;61.55;15.80;;;12.20;99.90;;;;;;4939133;29;20046;-66
2022/10/18 04:56:55;;;;;;;21.02;13.38;;;12.20;99.90;;;;;;4922203;29;20088;-67
2022/10/18 04:59:20;;;;;;;37.00;13.02;;;12.40;99.90;;;;;;4938644;29;20043;-66
2022/10/18 05:01:46;;;;;;;52.20;15.02;;;12.20;99.90;;;;;;4921999;29;20046;-66
2022/10/18 05:04:12;;;;;;;59.55;14.68;;;12.20;99.90;;;;;;4938582;29;20043;-67
2022/10/18 05:06:38;;;;;;;72.00;15.55;;;12.40;99.90;;;;;;4938539;29;20039;-67
2022/10/18 05:09:04;;;;;;;29.58;13.30;;;;;;;;;;4946046;29;20126;-65
2022/10/18 05:11:29;;;;;;;38.40;13.70;;;12.20;99.90;;;;;;4925118;29;20044;-66
2022/10/18 05:13:55;;;;;;;24.00;12.70;;;12.20;99.90;;;;;;4950145;28;20119;-67
2022/10/18 05:16:20;;;;;;;54.10;13.60;;;12.20;99.90;;;;;;4937897;29;20044;-67
2022/10/18 05:18:46;;;;;;;49.63;13.02;;;12.20;99.90;;;;;;4921704;29;20048;-66
2022/10/18 05:21:12;;;;;;;39.47;12.68;;;12.20;99.90;;;;;;4921676;29;20044;-67
2022/10/18 05:23:38;;;;;;;26.00;12.45;;;12.30;99.90;;;;;;4938270;29;20075;-66
2022/10/18 05:26:05;;;;;;;26.20;12.05;;;12.30;99.90;;;;;;4931541;29;20103;-66
2022/10/18 05:28:31;;;;;;;23.20;12.00;;;12.10;99.90;;;;;;4937558;29;20051;-66
2022/10/18 05:31:02;;;;;;;44.17;12.55;;;12.20;99.90;;;;;;4914865;29;20130;-66
2022/10/18 05:33:28;;;;;;;69.85;15.20;;;12.10;99.90;;;;;;4932731;29;20043;-67
2022/10/18 05:35:54;;;;;;;59.67;14.73;;;12.10;99.90;;;;;;4918369;29;20445;-67
2022/10/18 05:38:20;;;;;;;36.28;14.25;;;12.30;99.90;;;;;;4938345;29;20048;-66
2022/10/18 05:40:45;;;;;;;21.83;12.73;;;12.20;99.90;;;;;;4938248;29;20044;-67
2022/10/18 05:43:11;;;;;;;33.83;12.63;;;12.20;99.90;;;;;;4938339;29;20038;-66
2022/10/18 05:45:37;;;;;;;58.83;13.38;;;12.20;99.90;;;;;;4921629;29;20131;-66
2022/10/18 05:48:03;;;;;;;64.60;13.35;;;12.30;99.90;;;;;;4938061;29;20067;-67
2022/10/18 05:50:29;;;;;;;57.03;12.68;;;12.20;99.90;;;;;;4937454;29;20043;-67
2022/10/18 05:52:56;;;;;;;34.70;12.23;;;12.30;99.90;;;;;;4932693;29;20095;-66
2022/10/18 05:55:22;;;;;;;83.95;16.30;;;12.30;99.90;;;;;;4921066;29;20043;-67
2022/10/18 05:57:50;;;;;;;137.02;17.02;;;12.10;99.90;;;;;;4938150;29;20043;-66
2022/10/18 06:00:19;;;;;;;70.53;12.07;;;12.10;99.90;;;;;;4937726;29;20050;-67
2022/10/18 06:02:44;;;;;;;76.47;13.32;;;11.90;99.90;;;;;;4947928;29;20052;-66
2022/10/18 06:05:10;;;;;;;28.88;10.70;;;12.00;99.90;;;;;;4942114;29;20126;-66
2022/10/18 06:07:36;;;;;;;31.25;11.57;;;12.00;99.90;;;;;;4929184;29;20055;-66
2022/10/18 06:10:01;;;;;;;37.53;11.30;;;11.90;99.90;;;;;;4937671;29;20052;-67
2022/10/18 06:12:27;;;;;;;61.28;12.60;;;11.90;99.90;;;;;;4920793;29;20048;-66
2022/10/18 06:14:52;;;;;;;44.47;11.43;;;11.90;99.90;;;;;;4936852;29;20080;-66
2022/10/18 06:17:18;;;;;;;20.63;10.02;;;12.00;99.90;;;;;;4937562;29;20039;-66
2022/10/18 06:19:43;;;;;;;23.83;10.65;;;11.80;99.90;;;;;;4920210;29;20059;-67
2022/10/18 06:22:12;;;;;;;23.60;10.43;;;11.90;99.90;;;;;;4920215;29;20557;-66
2022/10/18 06:24:38;;;;;;;43.40;11.50;;;11.80;99.90;;;;;;4920045;29;20336;-68
2022/10/18 06:27:07;;;;;;;41.83;11.43;;;11.70;99.90;;;;;;4933569;29;20494;-67
2022/10/18 06:29:37;;;;;;;63.65;11.55;;;11.80;99.90;;;;;;4942529;29;20042;-66
2022/10/18 06:32:04;;;;;;;58.80;12.90;;;11.70;99.90;;;;;;4950747;29;20035;-67
2022/10/18 06:34:29;;;;;;;71.72;11.32;;;11.60;99.90;;;;;;4933039;29;20239;-65
2022/10/18 06:36:55;;;;;;;84.82;11.30;;;11.50;99.90;;;;;;4951473;29;20035;-65
2022/10/18 06:39:20;;;;;;;38.72;10.27;;;11.40;99.90;;;;;;4942434;29;20035;-66
2022/10/18 06:41:46;;;;;;;35.88;11.77;;;11.40;99.90;;;;;;4922141;29;20466;-66
2022/10/18 06:44:14;;;;;;;38.10;10.32;;;11.50;99.90;;;;;;4922841;29;20046;-67
2022/10/18 06:46:41;;;;;;;24.20;9.45;;;11.50;99.90;;;;;;4924800;29;20409;-67
2022/10/18 06:49:06;;;;;;;42.30;9.15;;;11.40;99.90;;;;;;4950713;29;20398;-66
2022/10/18 06:51:32;;;;;;;18.85;8.38;;;11.50;99.90;;;;;;4929873;29;20047;-67
2022/10/18 06:53:58;;;;;;;14.68;8.43;;;11.50;99.90;;;;;;4922000;29;20126;-67
2022/10/18 06:56:23;;;;;;;19.83;8.25;;;11.50;99.90;;;;;;4939334;29;20114;-66
2022/10/18 06:58:49;;;;;;;19.55;8.60;;;11.60;99.90;;;;;;4935149;29;20191;-67
2022/10/18 07:01:16;;;;;;;18.33;8.52;;;11.60;99.90;;;;;;4930173;29;20055;-66
2022/10/18 07:03:43;;;;;;;27.05;9.75;;;11.50;99.90;;;;;;4916987;29;20118;-66
2022/10/18 07:06:11;;;;;;;23.67;9.65;;;11.50;99.90;;;;;;4934990;29;20063;-66
2022/10/18 07:08:37;;;;;;;49.00;9.55;;;11.80;99.90;;;;;;4915000;29;20039;-66
2022/10/18 07:11:04;;;;;;;50.10;9.32;;;11.70;99.90;;;;;;4943266;29;20040;-67
2022/10/18 07:13:31;;;;;;;30.85;8.35;;;11.80;99.90;;;;;;4942685;29;20086;-66
2022/10/18 07:16:05;;;;;;;29.20;8.10;;;11.60;99.90;;;;;;4936077;29;20521;-67
2022/10/18 07:18:39;;;;;;;19.67;7.07;;;11.70;99.90;;;;;;4935471;29;20039;-68
2022/10/18 07:21:06;;;;;;;18.38;6.90;;;11.70;99.90;;;;;;4927280;29;20054;-66
2022/10/18 07:23:34;;;;;;;24.85;7.18;;;11.80;99.90;;;;;;4931209;29;20126;-66
2022/10/18 07:26:01;;;;;;;13.25;6.95;;;11.80;99.90;;;;;;4938848;29;20133;-66
2022/10/18 07:28:28;;;;;;;16.23;7.22;;;12.00;99.90;;;;;;4932345;29;20418;-67
2022/10/18 07:30:53;;;;;;;13.35;6.55;;;12.00;99.90;;;;;;4945790;29;20036;-67
2022/10/18 07:33:19;;;;;;;14.60;7.18;;;12.00;99.90;;;;;;4932651;29;20553;-67
2022/10/18 07:35:46;;;;;;;16.90;7.47;;;11.90;99.90;;;;;;4928105;29;20052;-67
2022/10/18 07:38:11;;;;;;;13.07;6.95;;;11.90;99.90;;;;;;4927164;29;20097;-66
2022/10/18 07:40:37;;;;;;;20.13;7.15;;;12.30;99.90;;;;;;4935709;29;20079;-65
2022/10/18 07:43:02;;;;;;;20.38;7.90;;;12.10;99.90;;;;;;4944027;29;20047;-65
2022/10/18 07:45:28;;;;;;;8.95;6.22;;;12.10;99.90;;;;;;4926958;29;20039;-66
2022/10/18 07:47:57;;;;;;;16.95;6.50;;;12.10;99.90;;;;;;4945176;29;20091;-66
2022/10/18 07:50:23;;;;;;;20.13;7.72;;;12.30;99.90;;;;;;4949668;29;20047;-65
2022/10/18 07:52:48;;;;;;;10.60;7.10;;;12.10;99.90;;;;;;4936144;29;20435;-66
2022/10/18 07:55:14;;;;;;;16.40;7.18;;;12.20;99.90;;;;;;4932531;29;20042;-66
2022/10/18 07:57:39;;;;;;;10.85;6.40;;;12.40;99.90;;;;;;4929901;29;20071;-66
2022/10/18 08:00:07;;;;;;;17.15;6.43;;;12.40;99.90;;;;;;4930344;29;20043;-66
2022/10/18 08:02:33;;;;;;;15.77;7.10;;;;;;;;;;4948262;29;20039;-65
2022/10/18 08:04:59;;;;;;;21.98;7.00;;;12.50;99.90;;;;;;4921175;29;20494;-66
2022/10/18 08:07:25;;;;;;;11.13;7.07;;;12.70;99.90;;;;;;4925316;29;20048;-66
2022/10/18 08:09:50;;;;;;;30.75;6.88;;;12.60;99.90;;;;;;4916154;29;20142;-66
2022/10/18 08:12:16;;;;;;;15.55;6.10;;;13.10;99.90;;;;;;4935658;29;20046;-66
2022/10/18 08:14:41;;;;;;;15.13;6.50;;;13.00;99.90;;;;;;4918579;29;20051;-66
2022/10/18 08:17:07;;;;;;;14.85;6.65;;;13.10;99.90;;;;;;4935294;29;20495;-65
2022/10/18 08:19:33;;;;;;;17.52;7.45;;;13.10;99.90;;;;;;4929681;29;20504;-65
2022/10/18 08:21:58;;;;;;;14.45;6.25;;;13.20;99.90;;;;;;4929525;29;20123;-65
2022/10/18 08:24:24;;;;;;;7.40;6.50;;;13.50;99.90;;;;;;4935538;29;20039;-66
2022/10/18 08:26:49;;;;;;;8.60;5.75;;;13.80;99.90;;;;;;4918135;29;20047;-65
2022/10/18 08:29:15;;;;;;;11.38;6.57;;;13.80;99.90;;;;;;4917202;29;20051;-67
2022/10/18 08:31:40;;;;;;;10.63;5.97;;;13.90;99.90;;;;;;4923589;29;20104;-67
2022/10/18 08:34:06;;;;;;;13.40;5.93;;;14.60;99.90;;;;;;4939037;29;20422;-66
2022/10/18 08:36:32;;;;;;;12.52;6.35;;;15.20;99.90;;;;;;4933442;29;20482;-67
2022/10/18 08:38:57;;;;;;;10.00;5.57;;;15.50;99.90;;;;;;4933807;29;20061;-65
2022/10/18 08:41:32;;;;;;;12.88;5.78;;;16.60;99.90;;;;;;4949396;29;20054;-67
2022/10/18 08:44:16;;;;;;;5.95;4.32;;;18.00;99.90;;;;;;4949255;29;20043;-66
2022/10/18 08:46:46;;;;;;;8.50;4.28;;;19.70;99.90;;;;;;4929873;29;20051;-67
2022/10/18 08:49:30;;;;;;;6.85;3.88;;;20.20;99.90;;;;;;4937161;29;20046;-67
2022/10/18 08:51:57;;;;;;;5.95;3.30;;;20.70;99.90;;;;;;4956098;29;20087;-66
2022/10/18 08:54:44;;;;;;;8.13;3.47;;;21.60;99.90;;;;;;4918700;29;20126;-68
2022/10/18 08:57:14;;;;;;;8.13;3.20;;;24.80;99.90;;;;;;4945133;29;20039;-67
2022/10/18 08:59:40;;;;;;;10.20;2.90;;;24.70;99.90;;;;;;4943069;29;20036;-67
2022/10/18 09:02:09;;;;;;;6.40;2.63;;;24.50;99.90;;;;;;4922464;29;20043;-66
2022/10/18 09:05:02;;;;;;;8.70;2.38;;;24.90;99.90;;;;;;4918260;29;20135;-67
2022/10/18 09:07:50;;;;;;;7.90;2.50;;;25.70;99.90;;;;;;4934436;29;20130;-67
2022/10/18 09:11:05;;;;;;;12.15;2.38;;;26.60;99.90;;;;;;4935105;29;20039;-66
2022/10/18 09:14:00;;;;;;;6.47;2.95;;;26.40;99.90;;;;;;4845659;29;20523;-67
2022/10/18 09:16:50;;;;;;;8.40;2.23;;;25.70;99.90;;;;;;4908206;29;20046;-67
2022/10/18 09:19:45;;;;;;;5.30;2.08;;;24.00;99.90;;;;;;4963994;28;20047;-68
2022/10/18 09:22:19;;;;;;;12.63;1.90;;;22.80;99.90;;;;;;4950255;29;20126;-68
2022/10/18 09:24:53;;;;;;;13.30;2.87;;;23.10;99.90;;;;;;4955438;29;20039;-67
2022/10/18 09:27:21;;;;;;;;;;;25.10;99.90;;;;;;4936090;29;20046;-68
2022/10/18 09:30:01;;;;;;;8.52;2.13;;;24.50;99.90;;;;;;4953424;29;19918;-68
2022/10/18 09:32:50;;;;;;;7.28;1.80;;;23.60;99.90;;;;;;4933763;29;20039;-68
2022/10/18 09:35:24;;;;;;;4.72;1.50;;;24.10;99.90;;;;;;4953386;29;20510;-68
2022/10/18 09:37:54;;;;;;;6.57;1.55;;;24.30;99.90;;;;;;4949324;29;20482;-67
2022/10/18 09:40:29;;;;;;;10.18;1.42;;;26.90;99.90;;;;;;4954352;29;20051;-68
2022/10/18 09:43:14;;;;;;;8.18;1.52;;;28.80;99.90;;;;;;4946101;29;20086;-68
2022/10/18 09:45:43;;;;;;;5.45;1.83;;;30.20;99.90;;;;;;4943900;29;20047;-68
2022/10/18 09:48:41;;;;;;;6.50;1.90;;;30.50;99.90;;;;;;4953492;28;20039;-69
2022/10/18 09:51:20;;;;;;;9.30;1.88;;;31.00;99.90;;;;;;4953287;29;20408;-67
2022/10/18 09:54:03;;;;;;;10.40;1.48;;;31.40;99.90;;;;;;4919099;29;20039;-67
2022/10/18 09:56:36;;;;;;;9.07;1.67;;;32.20;99.90;;;;;;4953027;29;20058;-64
2022/10/18 09:59:03;;;;;;;7.50;1.33;;;31.80;99.90;;;;;;4953289;29;20061;-64
2022/10/18 10:01:30;;;;;;;7.13;1.33;;;30.80;99.90;;;;;;4951817;29;20035;-64
2022/10/18 10:03:56;;;;;;;9.63;1.23;;;31.10;99.90;;;;;;4950821;29;20043;-66
2022/10/18 10:06:33;;;;;;;5.35;1.20;;;29.20;99.90;;;;;;4935003;29;20058;-64
2022/10/18 10:09:21;;;;;;;13.20;1.50;;;28.70;99.90;;;;;;4927819;29;20391;-67
2022/10/18 10:11:48;;;;;;;10.57;1.58;;;25.80;99.90;;;;;;4909798;29;20048;-67
2022/10/18 10:14:15;;;;;;;10.13;1.30;;;24.90;99.90;;;;;;4903175;29;20079;-66
2022/10/18 10:16:57;;;;;;;10.35;1.10;;;24.10;99.90;;;;;;4903132;29;20047;-66
2022/10/18 10:19:33;;;;;;;8.45;1.45;;;23.40;99.90;;;;;;4903154;29;20553;-66
2022/10/18 10:22:08;;;;;;;9.13;1.38;;;22.50;99.90;;;;;;4921059;29;20040;-66
2022/10/18 10:24:45;;;;;;;9.73;2.05;;;21.50;99.90;;;;;;4903786;29;20048;-65
2022/10/18 10:27:25;;;;;;;8.48;1.48;;;21.00;99.90;;;;;;4903789;29;20080;-65
2022/10/18 10:29:55;;;;;;;6.13;0.85;;;20.90;99.90;;;;;;4901630;29;20048;-65
2022/10/18 10:32:23;;;;;;;13.80;1.10;;;20.60;99.90;;;;;;4919197;29;20040;-65
2022/10/18 10:34:49;;;;;;;13.90;1.75;;;20.40;99.90;;;;;;4917835;29;20047;-65
2022/10/18 10:37:30;;;;;;;9.18;1.10;;;19.80;99.90;;;;;;4903646;29;20455;-66
2022/10/18 10:40:16;;;;;;;10.88;1.73;;;19.80;99.90;;;;;;4920629;29;20443;-66
2022/10/18 10:42:59;;;;;;;7.28;1.63;;;19.50;99.90;;;;;;4920443;29;20050;-65
2022/10/18 10:45:28;;;;;;;15.57;1.55;;;18.90;99.90;;;;;;4920149;29;20091;-65
2022/10/18 10:48:02;;;;;;;7.75;2.22;;;19.20;99.90;;;;;;4903494;29;20040;-65
2022/10/18 10:50:29;;;;;;;11.23;1.48;;;19.30;99.90;;;;;;4920261;29;20048;-65
2022/10/18 10:52:54;;;;;;;8.05;1.08;;;18.90;99.90;;;;;;4917076;29;20047;-66
2022/10/18 10:55:34;;;;;;;11.77;2.17;;;18.80;99.90;;;;;;4933983;29;20405;-66
2022/10/18 10:57:59;;;;;;;8.48;1.20;;;19.10;99.90;;;;;;4932868;29;20035;-65
2022/10/18 11:00:41;;;;;;;9.48;1.02;;;18.70;99.90;;;;;;4934423;29;20110;-65
2022/10/18 11:03:17;;;;;;;13.02;1.20;;;18.90;99.90;;;;;;4929810;29;20028;-65
2022/10/18 11:05:47;;;;;;;6.95;1.58;;;18.70;99.90;;;;;;4909177;29;20047;-66
2022/10/18 11:08:21;;;;;;;9.50;1.60;;;18.80;99.90;;;;;;4918840;29;20055;-66
2022/10/18 11:11:21;;;;;;;9.35;1.67;;;18.50;99.90;;;;;;4936194;29;20098;-66
2022/10/18 11:14:15;;;;;;;10.77;1.67;;;18.70;99.90;;;;;;4879208;29;20043;-66
2022/10/18 11:17:06;;;;;;;9.35;1.23;;;18.50;99.90;;;;;;4935426;29;20410;-68
2022/10/18 11:20:11;;;;;;;11.02;1.65;;;18.70;99.90;;;;;;4936049;29;20379;-68
2022/10/18 11:22:47;;;;;;;5.28;0.88;;;18.30;99.90;;;;;;4919927;29;20075;-68
2022/10/18 11:25:15;;;;;;;10.77;2.13;;;18.30;99.90;;;;;;4919461;29;20091;-68
2022/10/18 11:27:56;;;;;;;10.48;1.70;;;18.10;99.90;;;;;;4935651;29;20529;-68
2022/10/18 11:30:34;;;;;;;10.20;1.50;;;18.50;99.90;;;;;;4936517;29;20043;-68
2022/10/18 11:33:00;;;;;;;13.18;1.85;;;18.10;99.90;;;;;;4918485;29;20578;-68
2022/10/18 11:35:44;;;;;;;10.63;2.00;;;18.10;99.90;;;;;;4936281;29;20123;-68
2022/10/18 11:38:28;;;;;;;7.63;1.43;;;18.20;99.90;;;;;;4935611;29;20526;-68
2022/10/18 11:41:12;;;;;;;9.80;1.65;;;18.10;99.90;;;;;;4919061;29;20044;-68
2022/10/18 11:43:52;;;;;;;7.67;0.77;;;17.90;99.90;;;;;;4918367;29;20050;-69
2022/10/18 11:46:18;;;;;;;6.43;1.02;;;17.70;99.90;;;;;;4924306;29;20035;-68
2022/10/18 11:49:13;;;;;;;8.23;1.33;;;17.50;99.90;;;;;;4918572;29;20066;-68
2022/10/18 11:51:54;;;;;;;8.50;0.88;;;17.50;99.90;;;;;;4927236;29;20071;-68
2022/10/18 11:54:57;;;;;;;7.13;1.00;;;17.30;99.90;;;;;;4918443;29;20428;-68
2022/10/18 11:57:44;;;;;;;8.35;1.30;;;17.60;99.90;;;;;;4919082;29;20047;-68
2022/10/18 12:00:39;;;;;;;12.80;2.28;;;17.20;99.90;;;;;;4936228;29;20469;-68
2022/10/18 12:03:17;;;;;;;3.92;0.73;;;17.30;99.90;;;;;;4935619;29;20529;-68
2022/10/18 12:05:45;;;;;;;9.52;1.30;;;17.60;99.90;;;;;;4935247;29;20055;-67
2022/10/18 12:08:22;;;;;;;7.03;0.95;;;18.40;99.90;;;;;;4916785;29;20541;-68
2022/10/18 12:10:55;;;;;;;17.85;1.80;;;18.70;99.90;;;;;;4931150;29;20047;-68
2022/10/18 12:13:33;;;;;;;10.45;1.70;;;18.50;99.90;;;;;;4937746;29;20071;-69
2022/10/18 12:16:02;;;;;;;11.15;1.50;;;18.40;99.90;;;;;;4938670;29;20449;-68
2022/10/18 12:18:30;;;;;;;7.40;0.93;;;18.30;99.90;;;;;;4919959;29;20446;-68
2022/10/18 12:20:57;;;;;;;9.70;1.27;;;18.20;99.90;;;;;;4935934;29;20506;-68
2022/10/18 12:23:34;;;;;;;8.02;1.27;;;18.10;99.90;;;;;;4939016;29;20501;-68
2022/10/18 12:26:03;;;;;;;10.85;1.10;;;18.20;99.90;;;;;;4921866;29;20494;-68
2022/10/18 12:28:31;;;;;;;9.27;1.70;;;17.60;99.90;;;;;;4938841;29;20046;-68
2022/10/18 12:31:15;;;;;;;7.20;1.00;;;17.60;99.90;;;;;;4932492;29;20047;-68
2022/10/18 12:33:52;;;;;;;8.23;1.15;;;17.50;99.90;;;;;;4921628;29;20091;-68
2022/10/18 12:36:20;;;;;;;8.38;0.98;;;17.40;99.90;;;;;;4933486;29;20047;-68
2022/10/18 12:39:05;;;;;;;10.40;1.30;;;17.70;99.90;;;;;;4920535;29;20130;-68
2022/10/18 12:41:32;;;;;;;;;;;17.70;99.90;;;;;;4932801;29;20447;-68
2022/10/18 12:44:17;;;;;;;16.27;1.90;;;17.70;99.90;;;;;;4937411;29;19923;-68
2022/10/18 12:46:46;;;;;;;10.95;1.20;;;17.80;99.90;;;;;;4921696;29;20039;-68
2022/10/18 12:49:15;;;;;;;13.00;1.98;;;17.90;99.90;;;;;;4932184;29;20620;-68
2022/10/18 12:51:57;;;;;;;10.10;1.38;;;17.80;99.90;;;;;;4938609;29;20035;-68
2022/10/18 12:54:35;;;;;;;9.98;1.27;;;17.90;99.90;;;;;;4931113;29;20048;-68
2022/10/18 12:57:02;;;;;;;11.38;1.33;;;17.90;99.90;;;;;;4921281;29;20062;-68
2022/10/18 12:59:28;;;;;;;8.93;1.30;;;17.90;99.90;;;;;;4933658;29;20035;-68